createdAt,value
2023-03-07T00:05:17.469Z,11.32
2023-03-07T00:10:51.462Z,12.75
2023-03-07T00:16:18.501Z,11.40
2023-03-07T00:21:43.453Z,11.93
2023-03-07T00:27:11.476Z,11.93
2023-03-07T00:32:35.504Z,10.88
2023-03-07T00:38:00.461Z,11.80
2023-03-07T00:43:28.465Z,11.88
2023-03-07T00:48:54.457Z,11.57
2023-03-07T00:54:19.496Z,11.00
2023-03-07T00:59:47.485Z,11.70
2023-03-07T01:05:11.477Z,11.90
2023-03-07T01:10:37.478Z,11.45
2023-03-07T01:16:04.475Z,11.88
2023-03-07T01:21:31.486Z,12.05
2023-03-07T01:26:57.498Z,11.38
2023-03-07T01:32:25.528Z,11.75
2023-03-07T01:37:49.512Z,11.43
2023-03-07T01:43:33.486Z,12.13
2023-03-07T01:49:17.502Z,12.30
2023-03-07T01:54:55.485Z,11.90
2023-03-07T02:00:26.506Z,11.07
2023-03-07T02:05:59.502Z,10.60
2023-03-07T02:11:31.521Z,10.95
2023-03-07T02:16:57.481Z,10.52
2023-03-07T02:22:29.474Z,9.88
2023-03-07T02:28:00.477Z,9.50
2023-03-07T02:33:26.510Z,9.63
2023-03-07T02:38:58.544Z,9.20
2023-03-07T02:44:25.513Z,9.75
2023-03-07T02:49:50.614Z,8.95
2023-03-07T02:55:15.502Z,9.02
2023-03-07T03:00:50.560Z,9.57
2023-03-07T03:06:16.583Z,9.23
2023-03-07T03:11:50.631Z,8.80
2023-03-07T03:17:20.545Z,9.23
2023-03-07T03:22:45.568Z,9.40
2023-03-07T03:28:12.543Z,8.48
2023-03-07T03:33:39.553Z,8.10
2023-03-07T03:39:06.527Z,8.15
2023-03-07T03:44:36.553Z,8.13
2023-03-07T03:50:04.572Z,8.57
2023-03-07T03:55:30.573Z,7.50
2023-03-07T04:00:55.548Z,7.43
2023-03-07T04:06:27.638Z,7.70
2023-03-07T04:11:59.561Z,7.53
2023-03-07T04:17:24.534Z,6.45
2023-03-07T04:22:51.617Z,6.13
2023-03-07T04:28:16.552Z,6.20
2023-03-07T04:33:41.557Z,6.28
2023-03-07T04:39:09.537Z,7.47
2023-03-07T04:44:36.552Z,6.55
2023-03-07T04:50:01.546Z,5.95
2023-03-07T04:55:30.563Z,6.10
2023-03-07T05:00:56.691Z,5.70
2023-03-07T05:06:23.581Z,5.68
2023-03-07T05:12:01.116Z,5.95
2023-03-07T05:17:25.558Z,5.20
2023-03-07T05:22:49.570Z,5.40
2023-03-07T05:28:17.597Z,5.50
2023-03-07T05:33:42.600Z,5.10
2023-03-07T05:39:07.612Z,5.03
2023-03-07T05:44:35.543Z,4.75
2023-03-07T05:50:00.590Z,4.97
2023-03-07T05:55:25.589Z,4.97
2023-03-07T06:00:54.595Z,5.38
2023-03-07T06:06:19.605Z,5.63
2023-03-07T06:11:50.582Z,5.72
2023-03-07T06:17:18.579Z,6.03
2023-03-07T06:22:44.564Z,5.72
2023-03-07T06:28:09.593Z,5.72
2023-03-07T06:33:36.608Z,5.55
2023-03-07T06:39:01.611Z,5.00
2023-03-07T06:44:26.682Z,4.20
2023-03-07T06:49:54.585Z,4.25
2023-03-07T06:55:21.613Z,4.15
2023-03-07T07:00:46.592Z,3.45
2023-03-07T07:06:13.632Z,3.40
2023-03-07T07:11:45.629Z,3.15
2023-03-07T07:17:10.659Z,2.80
2023-03-07T07:22:37.665Z,3.05
2023-03-07T07:28:02.599Z,2.92
2023-03-07T07:33:26.690Z,2.80
2023-03-07T07:38:54.614Z,2.80
2023-03-07T07:44:19.648Z,2.72
2023-03-07T07:49:47.639Z,2.60
2023-03-07T07:55:16.642Z,2.80
2023-03-07T08:00:41.649Z,2.50
2023-03-07T08:06:05.642Z,2.70
2023-03-07T08:11:33.631Z,2.58
2023-03-07T08:16:57.650Z,2.92
2023-03-07T08:22:23.648Z,3.00
2023-03-07T08:27:50.686Z,2.90
2023-03-07T08:33:15.647Z,2.88
2023-03-07T08:38:39.632Z,3.20
2023-03-07T08:44:07.644Z,3.40
2023-03-07T08:49:31.672Z,3.53
2023-03-07T09:00:21.671Z,3.50
2023-03-07T09:05:48.633Z,3.88
2023-03-07T09:11:19.668Z,4.15
2023-03-07T09:16:53.650Z,4.40
2023-03-07T09:22:18.652Z,3.72
2023-03-07T09:27:42.657Z,3.70
2023-03-07T09:33:10.674Z,3.83
2023-03-07T09:38:34.664Z,3.53
2023-03-07T09:44:07.651Z,3.40
2023-03-07T09:50:00.659Z,3.40
2023-03-07T09:55:29.670Z,3.33
2023-03-07T10:00:57.709Z,3.17
2023-03-07T10:06:39.697Z,2.90
2023-03-07T10:12:34.688Z,3.03
2023-03-07T10:18:20.664Z,3.10
2023-03-07T10:23:59.688Z,2.78
2023-03-07T10:29:28.727Z,2.53
2023-03-07T10:34:54.687Z,2.70
2023-03-07T10:40:29.699Z,2.70
2023-03-07T10:45:53.702Z,2.47
2023-03-07T10:51:33.695Z,2.70
2023-03-07T10:57:19.675Z,2.85
2023-03-07T11:02:47.682Z,3.58
2023-03-07T11:08:12.677Z,2.97
2023-03-07T11:13:41.708Z,2.58
2023-03-07T11:19:05.688Z,2.72
2023-03-07T11:24:35.724Z,2.70
2023-03-07T11:30:21.697Z,2.55
2023-03-07T11:36:12.679Z,2.50
2023-03-07T11:41:42.692Z,2.83
2023-03-07T11:47:31.705Z,2.72
2023-03-07T11:53:10.744Z,2.70
2023-03-07T11:58:45.722Z,4.15
2023-03-07T12:04:55.709Z,2.75
2023-03-07T12:10:37.721Z,2.72
2023-03-07T12:16:12.812Z,3.55
2023-03-07T12:22:10.909Z,2.92
2023-03-07T12:27:42.732Z,2.40
2023-03-07T12:33:08.834Z,2.50
2023-03-07T12:38:42.717Z,3.50
2023-03-07T12:44:12.729Z,2.30
2023-03-07T12:49:50.073Z,2.60
2023-03-07T12:55:29.747Z,2.88
2023-03-07T13:00:58.771Z,2.47
2023-03-07T13:06:27.757Z,3.03
2023-03-07T13:12:30.748Z,2.35
2023-03-07T13:18:08.733Z,2.28
2023-03-07T13:23:43.763Z,2.50
2023-03-07T13:29:11.752Z,2.20
2023-03-07T13:35:02.772Z,2.30
2023-03-07T13:40:57.785Z,2.37
2023-03-07T13:46:58.818Z,2.63
2023-03-07T13:52:51.746Z,2.00
2023-03-07T13:58:31.763Z,2.58
2023-03-07T14:04:02.794Z,2.80
2023-03-07T14:09:33.341Z,2.50
2023-03-07T14:15:12.769Z,2.78
2023-03-07T14:20:47.769Z,3.25
2023-03-07T14:26:21.809Z,2.67
2023-03-07T14:31:52.770Z,2.65
2023-03-07T14:37:25.780Z,2.70
2023-03-07T14:42:56.790Z,4.22
2023-03-07T14:48:52.870Z,2.50
2023-03-07T14:54:31.798Z,2.67
2023-03-07T15:00:12.864Z,2.53
2023-03-07T15:05:38.788Z,3.07
2023-03-07T15:11:11.816Z,4.97
2023-03-07T15:16:40.808Z,3.33
2023-03-07T15:22:08.812Z,2.28
2023-03-07T15:27:40.807Z,2.70
2023-03-07T15:33:21.836Z,2.40
2023-03-07T15:38:45.868Z,2.17
2023-03-07T15:44:27.870Z,2.15
2023-03-07T15:49:57.842Z,3.20
2023-03-07T15:55:28.837Z,2.20
2023-03-07T16:00:56.856Z,2.93
2023-03-07T16:06:40.833Z,2.45
2023-03-07T16:12:11.835Z,2.58
2023-03-07T16:17:44.080Z,2.33
2023-03-07T16:23:08.846Z,2.50
2023-03-07T16:28:33.834Z,2.40
2023-03-07T16:34:02.888Z,2.60
2023-03-07T16:39:27.872Z,2.53
2023-03-07T16:44:55.996Z,3.92
2023-03-07T16:50:31.077Z,2.65
2023-03-07T16:56:00.016Z,2.60
2023-03-07T17:01:25.888Z,2.90
2023-03-07T17:07:04.771Z,2.60
2023-03-07T17:12:39.922Z,2.63
2023-03-07T17:18:05.040Z,2.63
2023-03-07T17:23:33.065Z,2.50
2023-03-07T17:28:58.866Z,2.80
2023-03-07T17:34:32.886Z,2.97
2023-03-07T17:40:01.849Z,2.33
2023-03-07T17:45:28.927Z,2.20
2023-03-07T17:50:56.376Z,2.40
2023-03-07T17:56:27.884Z,1.77
2023-03-07T18:01:52.918Z,2.00
2023-03-07T18:07:17.883Z,1.83
2023-03-07T18:12:52.878Z,2.40
2023-03-07T18:18:17.867Z,2.72
2023-03-07T18:23:42.898Z,2.45
2023-03-07T18:29:10.888Z,2.58
2023-03-07T18:34:35.898Z,2.70
2023-03-07T18:40:00.930Z,2.67
2023-03-07T18:45:30.869Z,3.28
2023-03-07T18:51:04.889Z,2.78
2023-03-07T18:56:30.886Z,2.72
2023-03-07T19:01:58.917Z,2.60
2023-03-07T19:07:23.916Z,3.00
2023-03-07T19:12:54.894Z,3.20
2023-03-07T19:18:22.911Z,3.58
2023-03-07T19:23:46.897Z,22.05
2023-03-07T19:29:11.906Z,5.50
2023-03-07T19:34:38.904Z,169.57
2023-03-07T19:40:03.916Z,223.82
2023-03-07T19:45:27.928Z,100.35
2023-03-07T19:50:55.905Z,102.55
2023-03-07T19:56:24.918Z,74.53
2023-03-07T20:01:49.960Z,5.38
2023-03-07T20:07:20.970Z,11.15
2023-03-07T20:12:51.927Z,7.50
2023-03-07T20:18:17.915Z,6.40
2023-03-07T20:23:44.908Z,5.45
2023-03-07T20:29:12.961Z,5.78
2023-03-07T20:34:38.070Z,5.20
2023-03-07T20:40:05.941Z,6.65
2023-03-07T20:45:33.947Z,16.85
2023-03-07T20:51:06.956Z,27.85
2023-03-07T20:56:40.998Z,6.05
2023-03-07T21:02:05.961Z,62.08
2023-03-07T21:07:30.936Z,288.00
2023-03-07T21:13:06.047Z,375.33
2023-03-07T21:18:30.962Z,141.38
2023-03-07T21:23:54.968Z,11.07
2023-03-07T21:29:22.993Z,6.53
2023-03-07T21:34:46.951Z,6.20
2023-03-07T21:40:13.963Z,5.60
2023-03-07T21:45:40.991Z,5.20
2023-03-07T21:51:05.948Z,4.55
2023-03-07T21:56:32.997Z,4.93
2023-03-07T22:02:01.030Z,5.70
2023-03-07T22:07:24.975Z,4.53
2023-03-07T22:12:55.985Z,5.32
2023-03-07T22:18:24.009Z,108.90
2023-03-07T22:23:47.979Z,17.92
2023-03-07T22:29:14.018Z,69.90
2023-03-07T22:34:40.989Z,16.77
2023-03-07T22:40:06.955Z,5.53
2023-03-07T22:45:30.959Z,4.85
2023-03-07T22:50:58.975Z,5.07
2023-03-07T22:56:29.990Z,4.18
2023-03-07T23:01:55.014Z,3.97
2023-03-07T23:07:23.064Z,3.85
2023-03-07T23:12:54.035Z,4.28
2023-03-07T23:18:18.976Z,4.53
2023-03-07T23:23:46.011Z,4.68
2023-03-07T23:29:12.008Z,4.88
2023-03-07T23:34:36.995Z,4.22
2023-03-07T23:40:05.023Z,3.40
2023-03-07T23:45:29.013Z,3.90
2023-03-07T23:50:54.034Z,4.65
2023-03-07T23:56:24.008Z,5.22
